createdAt,value
2019-01-13T00:00:56.907Z,2.70
2019-01-13T00:02:01.909Z,2.70
2019-01-13T00:03:07.013Z,2.70
2019-01-13T00:04:12.238Z,2.70
2019-01-13T00:05:17.179Z,2.70
2019-01-13T00:06:22.159Z,2.70
2019-01-13T00:07:29.328Z,2.70
2019-01-13T00:08:34.053Z,2.70
2019-01-13T00:09:40.304Z,2.70
2019-01-13T00:10:45.337Z,2.70
2019-01-13T00:11:50.168Z,2.70
2019-01-13T00:12:55.232Z,2.60
2019-01-13T00:14:00.097Z,2.60
2019-01-13T00:15:05.531Z,2.60
2019-01-13T00:16:10.682Z,2.60
2019-01-13T00:17:15.775Z,2.60
2019-01-13T00:18:21.264Z,2.60
2019-01-13T00:19:26.286Z,2.60
2019-01-13T00:20:31.775Z,2.60
2019-01-13T00:21:36.844Z,2.60
2019-01-13T00:22:41.806Z,2.60
2019-01-13T00:23:47.017Z,2.50
2019-01-13T00:24:51.983Z,2.50
2019-01-13T00:25:56.957Z,2.50
2019-01-13T00:27:01.881Z,2.50
2019-01-13T00:28:06.870Z,2.50
2019-01-13T00:29:11.776Z,2.50
2019-01-13T00:30:19.413Z,2.50
2019-01-13T00:31:23.943Z,2.40
2019-01-13T00:32:28.992Z,2.40
2019-01-13T00:33:33.757Z,2.30
2019-01-13T00:34:38.524Z,2.30
2019-01-13T00:35:44.994Z,2.30
2019-01-13T00:36:49.805Z,2.20
2019-01-13T00:37:54.767Z,2.20
2019-01-13T00:38:59.521Z,2.20
2019-01-13T00:40:05.117Z,2.20
2019-01-13T00:41:10.092Z,2.20
2019-01-13T00:42:15.049Z,2.20
2019-01-13T00:43:19.983Z,2.30
2019-01-13T00:44:25.088Z,2.30
2019-01-13T00:45:30.137Z,2.40
2019-01-13T00:46:35.057Z,2.40
2019-01-13T00:47:40.032Z,2.40
2019-01-13T00:48:45.131Z,2.30
2019-01-13T00:49:50.025Z,2.30
2019-01-13T00:50:54.835Z,2.30
2019-01-13T00:51:59.673Z,2.30
2019-01-13T00:53:04.856Z,2.30
2019-01-13T00:54:09.804Z,2.40
2019-01-13T00:55:15.207Z,2.30
2019-01-13T00:56:20.323Z,2.40
2019-01-13T00:57:25.416Z,2.40
2019-01-13T00:58:30.700Z,2.40
2019-01-13T00:59:35.449Z,2.40
2019-01-13T01:00:40.605Z,2.40
2019-01-13T01:01:45.480Z,2.40
2019-01-13T01:02:50.634Z,2.50
2019-01-13T01:03:55.872Z,2.40
2019-01-13T01:05:00.862Z,2.40
2019-01-13T01:06:06.208Z,2.40
2019-01-13T01:07:11.514Z,2.30
2019-01-13T01:08:16.983Z,2.30
2019-01-13T01:09:21.776Z,2.20
2019-01-13T01:10:26.706Z,2.20
2019-01-13T01:11:32.163Z,2.20
2019-01-13T01:12:37.039Z,2.10
2019-01-13T01:13:42.321Z,2.20
2019-01-13T01:14:47.215Z,2.10
2019-01-13T01:15:52.235Z,2.10
2019-01-13T01:16:57.180Z,2.00
2019-01-13T01:18:04.132Z,2.00
2019-01-13T01:19:08.880Z,2.00
2019-01-13T01:20:15.392Z,2.00
2019-01-13T01:21:20.469Z,2.00
2019-01-13T01:22:25.462Z,2.00
2019-01-13T01:23:30.678Z,2.00
2019-01-13T01:24:35.576Z,1.90
2019-01-13T01:25:40.411Z,1.90
2019-01-13T01:26:45.291Z,1.90
2019-01-13T01:27:50.155Z,1.90
2019-01-13T01:28:55.224Z,1.90
2019-01-13T01:30:00.237Z,1.90
2019-01-13T01:31:05.653Z,1.90
2019-01-13T01:32:10.507Z,1.90
2019-01-13T01:33:15.312Z,1.90
2019-01-13T01:34:20.301Z,1.90
2019-01-13T01:35:25.177Z,1.90
2019-01-13T01:36:30.147Z,2.00
2019-01-13T01:37:35.193Z,1.90
2019-01-13T01:38:40.048Z,1.90
2019-01-13T01:39:45.123Z,2.00
2019-01-13T01:40:50.290Z,1.90
2019-01-13T01:41:55.129Z,1.90
2019-01-13T01:43:00.009Z,2.00
2019-01-13T01:44:05.303Z,2.10
2019-01-13T01:45:13.537Z,2.10
2019-01-13T01:46:18.400Z,2.10
2019-01-13T01:47:23.339Z,2.20
2019-01-13T01:48:28.344Z,2.20
2019-01-13T01:49:33.284Z,2.30
2019-01-13T01:50:38.104Z,2.30
2019-01-13T01:51:45.041Z,2.30
2019-01-13T01:52:49.463Z,2.30
2019-01-13T01:53:54.325Z,2.40
2019-01-13T01:54:59.263Z,2.40
2019-01-13T01:56:04.304Z,2.40
2019-01-13T01:57:09.239Z,2.40
2019-01-13T01:58:14.220Z,2.40
2019-01-13T01:59:19.171Z,2.40
2019-01-13T02:00:25.345Z,2.40
2019-01-13T02:01:33.251Z,2.50
2019-01-13T02:02:38.194Z,2.50
2019-01-13T02:03:43.149Z,2.50
2019-01-13T02:04:48.064Z,2.50
2019-01-13T02:05:53.156Z,2.50
2019-01-13T02:06:58.350Z,2.50
2019-01-13T02:08:03.252Z,2.50
2019-01-13T02:09:09.327Z,2.50
2019-01-13T02:10:17.263Z,2.50
2019-01-13T02:11:22.068Z,2.50
2019-01-13T02:12:27.060Z,2.60
2019-01-13T02:13:32.000Z,2.60
2019-01-13T02:14:36.893Z,2.50
2019-01-13T02:15:41.692Z,2.60
2019-01-13T02:16:46.534Z,2.60
2019-01-13T02:17:51.513Z,2.60
2019-01-13T02:18:56.424Z,2.60
2019-01-13T02:20:05.917Z,2.60
2019-01-13T02:21:10.812Z,2.60
2019-01-13T02:22:15.616Z,2.50
2019-01-13T02:23:20.429Z,2.60
2019-01-13T02:24:25.436Z,2.60
2019-01-13T02:25:31.288Z,2.60
2019-01-13T02:26:36.109Z,2.50
2019-01-13T02:27:41.149Z,2.60
2019-01-13T02:28:46.227Z,2.60
2019-01-13T02:29:51.158Z,2.60
2019-01-13T02:30:56.083Z,2.60
2019-01-13T02:32:01.083Z,2.60
2019-01-13T02:33:06.237Z,2.60
2019-01-13T02:34:11.209Z,2.60
2019-01-13T02:35:16.250Z,2.60
2019-01-13T02:36:21.233Z,2.60
2019-01-13T02:37:25.934Z,2.60
2019-01-13T02:38:30.905Z,2.70
2019-01-13T02:39:36.063Z,2.70
2019-01-13T02:40:41.012Z,2.70
2019-01-13T02:41:45.846Z,2.70
2019-01-13T02:42:51.120Z,2.70
2019-01-13T02:43:56.352Z,2.80
2019-01-13T02:45:01.205Z,2.80
2019-01-13T02:46:06.144Z,2.90
2019-01-13T02:47:11.097Z,2.90
2019-01-13T02:48:16.191Z,2.90
2019-01-13T02:49:21.072Z,2.80
2019-01-13T02:50:25.864Z,2.80
2019-01-13T02:51:30.948Z,2.80
2019-01-13T02:52:36.017Z,2.80
2019-01-13T02:53:40.719Z,2.80
2019-01-13T02:54:45.672Z,2.80
2019-01-13T02:55:50.510Z,2.80
2019-01-13T02:56:55.498Z,2.80
2019-01-13T02:58:00.240Z,2.80
2019-01-13T02:59:06.352Z,2.80
2019-01-13T03:00:14.888Z,2.80
2019-01-13T03:01:19.616Z,2.80
2019-01-13T03:02:24.345Z,2.80
2019-01-13T03:03:29.116Z,2.80
2019-01-13T03:04:33.988Z,2.80
2019-01-13T03:05:38.742Z,2.80
2019-01-13T03:06:43.529Z,2.80
2019-01-13T03:07:48.573Z,2.80
2019-01-13T03:08:54.820Z,2.80
2019-01-13T03:09:59.720Z,2.80
2019-01-13T03:11:04.680Z,2.80
2019-01-13T03:12:09.614Z,2.80
2019-01-13T03:13:14.348Z,2.70
2019-01-13T03:14:19.253Z,2.70
2019-01-13T03:15:25.667Z,2.70
2019-01-13T03:16:30.521Z,2.60
2019-01-13T03:17:35.405Z,2.60
2019-01-13T03:18:40.856Z,2.60
2019-01-13T03:19:45.737Z,2.60
2019-01-13T03:20:50.965Z,2.60
2019-01-13T03:21:55.704Z,2.60
2019-01-13T03:23:00.463Z,2.60
2019-01-13T03:24:05.830Z,2.60
2019-01-13T03:25:12.772Z,2.60
2019-01-13T03:26:17.660Z,2.60
2019-01-13T03:27:22.786Z,2.60
2019-01-13T03:28:27.513Z,2.60
2019-01-13T03:29:32.282Z,2.70
2019-01-13T03:30:37.281Z,2.80
2019-01-13T03:31:42.199Z,2.70
2019-01-13T03:32:46.971Z,2.70
2019-01-13T03:33:51.800Z,2.80
2019-01-13T03:34:56.806Z,2.70
2019-01-13T03:36:01.736Z,2.80
2019-01-13T03:37:06.500Z,2.80
2019-01-13T03:38:11.453Z,2.70
2019-01-13T03:39:16.444Z,2.70
2019-01-13T03:40:25.800Z,2.70
2019-01-13T03:41:30.700Z,2.70
2019-01-13T03:42:35.563Z,2.80
2019-01-13T03:43:40.305Z,2.80
2019-01-13T03:44:45.103Z,2.80
2019-01-13T03:45:50.065Z,2.80
2019-01-13T03:46:54.968Z,2.80
2019-01-13T03:47:59.703Z,2.80
2019-01-13T03:49:04.476Z,2.80
2019-01-13T03:50:11.986Z,2.80
2019-01-13T03:51:16.929Z,2.80
2019-01-13T03:52:21.672Z,2.80
2019-01-13T03:53:26.516Z,2.80
2019-01-13T03:54:31.372Z,2.80
2019-01-13T03:55:36.284Z,2.80
2019-01-13T03:56:41.226Z,2.80
2019-01-13T03:57:46.277Z,2.80
2019-01-13T03:58:51.025Z,2.90
2019-01-13T03:59:55.905Z,2.80
2019-01-13T04:01:00.760Z,2.80
2019-01-13T04:02:05.783Z,2.90
2019-01-13T04:03:10.557Z,2.90
2019-01-13T04:04:15.392Z,2.90
2019-01-13T04:05:20.771Z,2.90
2019-01-13T04:06:25.591Z,2.90
2019-01-13T04:07:30.332Z,2.90
2019-01-13T04:08:35.152Z,2.90
2019-01-13T04:09:40.186Z,2.90
2019-01-13T04:10:45.105Z,3.00
2019-01-13T04:11:49.836Z,3.00
2019-01-13T04:12:54.713Z,3.00
2019-01-13T04:13:59.539Z,2.90
2019-01-13T04:15:05.502Z,3.00
2019-01-13T04:16:10.364Z,2.90
2019-01-13T04:17:15.236Z,3.00
2019-01-13T04:18:20.080Z,3.00
2019-01-13T04:19:24.833Z,3.00
2019-01-13T04:20:29.839Z,2.90
2019-01-13T04:21:34.681Z,2.90
2019-01-13T04:22:39.660Z,2.80
2019-01-13T04:23:44.397Z,2.80
2019-01-13T04:24:49.159Z,2.80
2019-01-13T04:25:54.196Z,2.80
2019-01-13T04:26:58.949Z,2.80
2019-01-13T04:28:03.833Z,2.80
2019-01-13T04:29:08.761Z,2.80
2019-01-13T04:30:14.020Z,2.80
2019-01-13T04:31:26.393Z,2.80
2019-01-13T04:32:25.288Z,2.80
2019-01-13T04:33:30.148Z,2.80
2019-01-13T04:34:34.868Z,2.80
2019-01-13T04:35:39.633Z,2.80
2019-01-13T04:36:44.376Z,2.80
2019-01-13T04:37:49.276Z,2.80
2019-01-13T04:38:54.039Z,2.90
2019-01-13T04:40:01.910Z,2.90
2019-01-13T04:41:06.751Z,2.80
2019-01-13T04:42:11.526Z,2.80
2019-01-13T04:43:16.280Z,2.80
2019-01-13T04:44:21.241Z,2.80
2019-01-13T04:45:26.117Z,2.80
2019-01-13T04:46:30.890Z,2.80
2019-01-13T04:47:35.830Z,2.80
2019-01-13T04:48:40.647Z,2.80
2019-01-13T04:49:45.663Z,2.80
2019-01-13T04:50:50.511Z,2.80
2019-01-13T04:51:55.505Z,2.70
2019-01-13T04:53:00.375Z,2.80
2019-01-13T04:54:05.224Z,2.80
2019-01-13T04:55:10.288Z,2.70
2019-01-13T04:56:15.168Z,2.70
2019-01-13T04:57:20.112Z,2.70
2019-01-13T04:58:24.845Z,2.70
2019-01-13T04:59:29.595Z,2.70
2019-01-13T05:00:34.477Z,2.70
2019-01-13T05:01:39.313Z,2.70
2019-01-13T05:02:44.264Z,2.70
2019-01-13T05:03:49.179Z,2.70
2019-01-13T05:04:53.923Z,2.70
2019-01-13T05:05:58.852Z,2.70
2019-01-13T05:07:03.809Z,2.70
2019-01-13T05:08:09.076Z,2.70
2019-01-13T05:09:13.859Z,2.70
2019-01-13T05:10:20.165Z,2.70
2019-01-13T05:11:24.992Z,2.60
2019-01-13T05:12:29.856Z,2.60
2019-01-13T05:13:34.601Z,2.60
2019-01-13T05:14:39.360Z,2.60
2019-01-13T05:15:44.319Z,2.70
2019-01-13T05:16:49.171Z,2.60
2019-01-13T05:17:53.892Z,2.60
2019-01-13T05:18:58.738Z,2.70
2019-01-13T05:20:03.705Z,2.60
2019-01-13T05:21:08.668Z,2.60
2019-01-13T05:22:13.673Z,2.60
2019-01-13T05:23:18.411Z,2.60
2019-01-13T05:24:23.132Z,2.60
2019-01-13T05:25:28.111Z,2.60
2019-01-13T05:26:32.942Z,2.60
2019-01-13T05:27:37.784Z,2.60
2019-01-13T05:28:42.564Z,2.50
2019-01-13T05:29:47.404Z,2.60
2019-01-13T05:30:52.304Z,2.60
2019-01-13T05:31:57.139Z,2.50
2019-01-13T05:33:01.864Z,2.60
2019-01-13T05:34:06.625Z,2.50
2019-01-13T05:35:11.591Z,2.50
2019-01-13T05:36:16.478Z,2.50
2019-01-13T05:37:21.236Z,2.50
2019-01-13T05:38:25.980Z,2.50
2019-01-13T05:39:30.804Z,2.50
2019-01-13T05:40:35.929Z,2.50
2019-01-13T05:41:40.900Z,2.50
2019-01-13T05:42:45.756Z,2.60
2019-01-13T05:43:50.712Z,2.60
2019-01-13T05:44:55.474Z,2.60
2019-01-13T05:46:00.305Z,2.60
2019-01-13T05:47:05.227Z,2.60
2019-01-13T05:48:10.133Z,2.60
2019-01-13T05:49:14.955Z,2.60
2019-01-13T05:50:23.060Z,2.60
2019-01-13T05:51:28.026Z,2.50
2019-01-13T05:52:32.791Z,2.50
2019-01-13T05:53:38.902Z,2.60
2019-01-13T05:54:43.753Z,2.60
2019-01-13T05:55:48.656Z,2.60
2019-01-13T05:56:53.805Z,2.60
2019-01-13T05:57:58.749Z,2.60
2019-01-13T05:59:03.632Z,2.60
2019-01-13T06:00:11.932Z,2.70
2019-01-13T06:01:16.788Z,2.70
2019-01-13T06:02:21.712Z,2.70
2019-01-13T06:03:26.607Z,2.70
2019-01-13T06:04:31.388Z,2.70
2019-01-13T06:05:36.216Z,2.70
2019-01-13T06:06:41.136Z,2.60
2019-01-13T06:07:46.107Z,2.60
2019-01-13T06:08:50.841Z,2.60
2019-01-13T06:09:56.829Z,2.60
2019-01-13T06:11:01.712Z,2.70
2019-01-13T06:12:06.468Z,2.70
2019-01-13T06:13:11.377Z,2.70
2019-01-13T06:14:16.313Z,2.70
2019-01-13T06:15:23.201Z,2.70
2019-01-13T06:16:28.191Z,2.70
2019-01-13T06:17:33.064Z,2.60
2019-01-13T06:18:37.817Z,2.70
2019-01-13T06:19:42.555Z,2.70
2019-01-13T06:20:47.473Z,2.70
2019-01-13T06:21:52.307Z,2.70
2019-01-13T06:22:57.068Z,2.70
2019-01-13T06:24:01.783Z,2.70
2019-01-13T06:25:07.083Z,2.70
2019-01-13T06:26:11.949Z,2.70
2019-01-13T06:27:16.856Z,2.70
2019-01-13T06:28:21.623Z,2.70
2019-01-13T06:29:26.587Z,2.70
2019-01-13T06:30:31.340Z,2.70
2019-01-13T06:31:36.468Z,2.70
2019-01-13T06:32:41.219Z,2.70
2019-01-13T06:33:45.974Z,2.70
2019-01-13T06:34:50.869Z,2.70
2019-01-13T06:35:55.621Z,2.70
2019-01-13T06:37:00.504Z,2.70
2019-01-13T06:38:06.335Z,2.70
2019-01-13T06:39:11.336Z,2.80
2019-01-13T06:40:19.339Z,2.80
2019-01-13T06:41:24.116Z,2.80
2019-01-13T06:42:28.851Z,2.70
2019-01-13T06:43:33.676Z,2.70
2019-01-13T06:44:38.577Z,2.80
2019-01-13T06:45:43.322Z,2.80
2019-01-13T06:46:48.094Z,2.80
2019-01-13T06:47:52.906Z,2.80
2019-01-13T06:48:59.201Z,2.80
2019-01-13T06:50:04.757Z,2.80
2019-01-13T06:51:09.676Z,2.80
2019-01-13T06:52:14.411Z,2.90
2019-01-13T06:53:19.243Z,2.90
2019-01-13T06:54:24.284Z,2.90
2019-01-13T06:55:29.035Z,2.90
2019-01-13T06:56:35.271Z,2.90
2019-01-13T06:57:40.149Z,2.90
2019-01-13T06:58:44.905Z,2.90
2019-01-13T06:59:50.955Z,2.90
2019-01-13T07:00:56.010Z,2.90
2019-01-13T07:02:03.460Z,2.90
2019-01-13T07:03:07.540Z,2.90
2019-01-13T07:04:12.394Z,2.90
2019-01-13T07:05:17.244Z,2.90
2019-01-13T07:06:22.284Z,2.90
2019-01-13T07:07:27.287Z,2.90
2019-01-13T07:08:32.010Z,2.90
2019-01-13T07:09:36.876Z,3.00
2019-01-13T07:10:41.599Z,3.00
2019-01-13T07:11:46.520Z,3.00
2019-01-13T07:12:51.521Z,3.00
2019-01-13T07:13:56.435Z,3.00
2019-01-13T07:15:03.650Z,3.00
2019-01-13T07:16:08.513Z,3.00
2019-01-13T07:17:13.292Z,2.90
2019-01-13T07:18:18.011Z,3.00
2019-01-13T07:19:22.798Z,2.90
2019-01-13T07:20:27.718Z,2.90
2019-01-13T07:21:32.551Z,2.90
2019-01-13T07:22:40.848Z,2.90
2019-01-13T07:23:46.050Z,2.90
2019-01-13T07:24:50.776Z,2.90
2019-01-13T07:25:55.558Z,3.00
2019-01-13T07:27:00.320Z,2.90
2019-01-13T07:28:05.086Z,3.00
2019-01-13T07:29:09.853Z,2.90
2019-01-13T07:30:22.448Z,2.90
2019-01-13T07:31:27.172Z,2.90
2019-01-13T07:32:31.947Z,2.90
2019-01-13T07:33:36.697Z,2.90
2019-01-13T07:34:41.493Z,2.90
2019-01-13T07:35:46.278Z,2.90
2019-01-13T07:36:51.072Z,2.90
2019-01-13T07:37:55.779Z,2.90
2019-01-13T07:39:00.704Z,2.90
2019-01-13T07:40:08.444Z,2.90
2019-01-13T07:41:13.284Z,2.90
2019-01-13T07:42:18.041Z,2.90
2019-01-13T07:43:22.806Z,2.90
2019-01-13T07:44:27.713Z,2.90
2019-01-13T07:45:32.458Z,3.00
2019-01-13T07:46:37.258Z,3.00
2019-01-13T07:47:42.093Z,3.00
2019-01-13T07:48:46.873Z,2.90
2019-01-13T07:49:51.727Z,3.00
2019-01-13T07:50:56.456Z,3.00
2019-01-13T07:52:01.261Z,3.00
2019-01-13T07:53:06.113Z,3.00
2019-01-13T07:54:10.867Z,3.10
2019-01-13T07:55:17.415Z,3.10
2019-01-13T07:56:22.128Z,3.10
2019-01-13T07:57:26.945Z,3.10
2019-01-13T07:58:31.664Z,3.10
2019-01-13T07:59:36.469Z,3.10
2019-01-13T08:00:41.205Z,3.10
2019-01-13T08:01:46.022Z,3.10
2019-01-13T08:02:50.941Z,3.20
2019-01-13T08:03:55.672Z,3.10
2019-01-13T08:05:00.577Z,3.00
2019-01-13T08:06:05.415Z,3.10
2019-01-13T08:07:10.218Z,3.10
2019-01-13T08:08:15.003Z,3.10
2019-01-13T08:09:19.804Z,3.10
2019-01-13T08:10:24.694Z,3.10
2019-01-13T08:11:29.432Z,3.10
2019-01-13T08:12:34.209Z,3.10
2019-01-13T08:13:38.936Z,3.10
2019-01-13T08:14:43.708Z,3.10
2019-01-13T08:15:48.436Z,3.10
2019-01-13T08:16:53.226Z,3.10
2019-01-13T08:17:58.007Z,3.10
2019-01-13T08:19:02.782Z,3.00
2019-01-13T08:20:10.596Z,3.10
2019-01-13T08:21:15.451Z,3.10
2019-01-13T08:22:20.275Z,3.20
2019-01-13T08:23:24.982Z,3.20
2019-01-13T08:24:29.777Z,3.10
2019-01-13T08:25:34.528Z,3.10
2019-01-13T08:26:39.399Z,3.10
2019-01-13T08:27:44.168Z,3.10
2019-01-13T08:28:48.896Z,3.20
2019-01-13T08:29:53.705Z,3.10
2019-01-13T08:30:58.530Z,3.20
2019-01-13T08:32:03.319Z,3.10
2019-01-13T08:33:08.124Z,3.20
2019-01-13T08:34:12.856Z,3.20
2019-01-13T08:35:17.612Z,3.10
2019-01-13T08:36:22.368Z,3.20
2019-01-13T08:37:27.181Z,3.20
2019-01-13T08:38:31.917Z,3.30
2019-01-13T08:39:36.683Z,3.30
2019-01-13T08:40:41.412Z,3.30
2019-01-13T08:41:46.204Z,3.30
2019-01-13T08:42:51.116Z,3.30
2019-01-13T08:43:55.841Z,3.30
2019-01-13T08:45:00.596Z,3.30
2019-01-13T08:46:05.348Z,3.30
2019-01-13T08:47:10.101Z,3.30
2019-01-13T08:48:14.916Z,3.30
2019-01-13T08:49:19.682Z,3.30
2019-01-13T08:50:26.168Z,3.30
2019-01-13T08:51:31.710Z,3.20
2019-01-13T08:52:36.535Z,3.20
2019-01-13T08:53:41.358Z,3.20
2019-01-13T08:54:46.112Z,3.20
2019-01-13T08:55:50.862Z,3.20
2019-01-13T08:56:55.609Z,3.20
2019-01-13T08:58:00.511Z,3.30
2019-01-13T08:59:05.619Z,3.20
2019-01-13T09:00:19.177Z,3.30
2019-01-13T09:01:24.055Z,3.30
2019-01-13T09:02:32.303Z,3.30
2019-01-13T09:03:35.176Z,3.30
2019-01-13T09:04:40.049Z,3.30
2019-01-13T09:05:44.837Z,3.30
2019-01-13T09:06:49.616Z,3.20
2019-01-13T09:07:54.749Z,3.30
2019-01-13T09:08:59.644Z,3.20
2019-01-13T09:10:05.380Z,3.20
2019-01-13T09:11:10.164Z,3.30
2019-01-13T09:12:14.913Z,3.30
2019-01-13T09:13:19.898Z,3.30
2019-01-13T09:14:24.717Z,3.20
2019-01-13T09:15:29.928Z,3.30
2019-01-13T09:16:34.856Z,3.40
2019-01-13T09:17:39.658Z,3.30
2019-01-13T09:18:44.528Z,3.30
2019-01-13T09:19:49.416Z,3.30
2019-01-13T09:20:54.325Z,3.30
2019-01-13T09:21:59.217Z,3.40
2019-01-13T09:23:04.977Z,3.40
2019-01-13T09:24:09.863Z,3.30
2019-01-13T09:25:14.779Z,3.30
2019-01-13T09:26:19.569Z,3.30
2019-01-13T09:27:24.489Z,3.30
2019-01-13T09:28:29.368Z,3.30
2019-01-13T09:29:34.286Z,3.30
2019-01-13T09:30:39.008Z,3.30
2019-01-13T09:31:43.887Z,3.30
2019-01-13T09:32:48.996Z,3.30
2019-01-13T09:33:53.781Z,3.50
2019-01-13T09:34:58.700Z,3.50
2019-01-13T09:36:03.723Z,3.60
2019-01-13T09:37:08.736Z,3.60
2019-01-13T09:38:13.628Z,3.70
2019-01-13T09:39:18.500Z,3.80
2019-01-13T09:40:25.729Z,3.90
2019-01-13T09:41:30.652Z,3.90
2019-01-13T09:42:35.411Z,3.80
2019-01-13T09:43:40.387Z,3.90
2019-01-13T09:44:45.300Z,3.90
2019-01-13T09:45:50.569Z,3.90
2019-01-13T09:46:55.543Z,3.90
2019-01-13T09:48:00.449Z,4.00
2019-01-13T09:49:05.320Z,3.90
2019-01-13T09:50:12.290Z,4.00
2019-01-13T09:51:17.303Z,4.00
2019-01-13T09:52:22.218Z,4.10
2019-01-13T09:53:27.053Z,4.10
2019-01-13T09:54:31.897Z,4.10
2019-01-13T09:55:36.702Z,4.10
2019-01-13T09:56:41.493Z,4.10
2019-01-13T09:57:46.649Z,4.00
2019-01-13T09:58:51.491Z,4.00
2019-01-13T09:59:56.382Z,4.00
2019-01-13T10:01:01.411Z,3.90
2019-01-13T10:02:06.296Z,3.80
2019-01-13T10:03:11.925Z,3.80
2019-01-13T10:04:16.859Z,3.80
2019-01-13T10:05:21.808Z,3.80
2019-01-13T10:06:26.982Z,3.80
2019-01-13T10:07:32.501Z,3.80
2019-01-13T10:08:37.431Z,3.80
2019-01-13T10:09:42.260Z,3.70
2019-01-13T10:10:47.121Z,3.70
2019-01-13T10:11:51.956Z,3.70
2019-01-13T10:12:56.989Z,3.70
2019-01-13T10:14:01.828Z,3.70
2019-01-13T10:15:09.119Z,3.60
2019-01-13T10:16:14.229Z,3.60
2019-01-13T10:17:19.085Z,3.60
2019-01-13T10:18:23.988Z,3.50
2019-01-13T10:19:28.828Z,3.60
2019-01-13T10:20:36.720Z,3.50
2019-01-13T10:21:41.523Z,3.60
2019-01-13T10:22:46.584Z,3.60
2019-01-13T10:23:51.420Z,3.60
2019-01-13T10:24:56.357Z,3.60
2019-01-13T10:26:01.852Z,3.60
2019-01-13T10:27:07.109Z,3.70
2019-01-13T10:28:12.154Z,3.60
2019-01-13T10:29:17.237Z,3.70
2019-01-13T10:30:25.113Z,3.70
2019-01-13T10:31:30.116Z,3.80
2019-01-13T10:32:35.090Z,3.80
2019-01-13T10:33:40.355Z,3.90
2019-01-13T10:34:45.473Z,3.90
2019-01-13T10:35:50.511Z,4.00
2019-01-13T10:36:55.705Z,4.00
2019-01-13T10:38:00.915Z,3.90
2019-01-13T10:39:08.685Z,3.90
2019-01-13T10:40:16.663Z,3.90
2019-01-13T10:41:21.697Z,3.90
2019-01-13T10:42:26.485Z,3.90
2019-01-13T10:43:31.263Z,3.80
2019-01-13T10:44:36.130Z,3.80
2019-01-13T10:45:41.087Z,3.80
2019-01-13T10:46:45.956Z,3.80
2019-01-13T10:47:50.784Z,3.80
2019-01-13T10:48:55.659Z,3.80
2019-01-13T10:50:00.843Z,3.80
2019-01-13T10:51:05.844Z,3.80
2019-01-13T10:52:10.910Z,3.90
2019-01-13T10:53:15.787Z,3.90
2019-01-13T10:54:20.657Z,3.90
2019-01-13T10:55:25.724Z,4.00
2019-01-13T10:56:30.636Z,4.00
2019-01-13T10:57:35.632Z,4.00
2019-01-13T10:58:40.473Z,4.00
2019-01-13T10:59:45.385Z,4.00
2019-01-13T11:00:50.345Z,4.00
2019-01-13T11:01:55.349Z,4.00
2019-01-13T11:03:02.287Z,4.00
2019-01-13T11:04:06.811Z,4.00
2019-01-13T11:05:11.985Z,4.00
2019-01-13T11:06:16.824Z,4.00
2019-01-13T11:07:21.663Z,4.00
2019-01-13T11:08:26.457Z,3.90
2019-01-13T11:09:31.263Z,4.00
2019-01-13T11:10:36.416Z,4.00
2019-01-13T11:11:41.579Z,4.00
2019-01-13T11:12:46.541Z,4.00
2019-01-13T11:13:51.407Z,4.00
2019-01-13T11:14:56.376Z,4.10
2019-01-13T11:16:01.228Z,4.00
2019-01-13T11:17:06.109Z,4.10
2019-01-13T11:18:11.058Z,4.10
2019-01-13T11:19:15.941Z,4.10
2019-01-13T11:20:23.562Z,4.20
2019-01-13T11:21:28.435Z,4.10
2019-01-13T11:22:33.292Z,4.20
2019-01-13T11:23:38.220Z,4.20
2019-01-13T11:24:43.281Z,4.20
2019-01-13T11:25:48.105Z,4.20
2019-01-13T11:26:53.013Z,4.30
2019-01-13T11:27:57.837Z,4.20
2019-01-13T11:29:02.698Z,4.20
2019-01-13T11:30:09.500Z,4.20
2019-01-13T11:31:14.420Z,4.20
2019-01-13T11:32:19.319Z,4.20
2019-01-13T11:33:24.076Z,4.20
2019-01-13T11:34:28.953Z,4.20
2019-01-13T11:35:33.888Z,4.20
2019-01-13T11:36:38.748Z,4.20
2019-01-13T11:37:43.790Z,4.20
2019-01-13T11:38:48.619Z,4.20
2019-01-13T11:39:53.721Z,4.20
2019-01-13T11:40:58.867Z,4.20
2019-01-13T11:42:03.744Z,4.20
2019-01-13T11:43:08.831Z,4.10
2019-01-13T11:44:13.720Z,4.10
2019-01-13T11:45:19.150Z,4.20
2019-01-13T11:46:24.096Z,4.10
2019-01-13T11:47:28.942Z,4.10
2019-01-13T11:48:33.782Z,4.10
2019-01-13T11:49:38.718Z,4.10
2019-01-13T11:50:43.545Z,4.10
2019-01-13T11:51:48.500Z,4.10
2019-01-13T11:52:53.493Z,4.10
2019-01-13T11:53:58.420Z,4.10
2019-01-13T11:55:03.313Z,4.10
2019-01-13T11:56:08.384Z,4.20
2019-01-13T11:57:13.263Z,4.20
2019-01-13T11:58:18.026Z,4.10
2019-01-13T11:59:22.898Z,4.10
2019-01-13T12:00:36.057Z,4.20
2019-01-13T12:01:40.906Z,4.20
2019-01-13T12:02:45.907Z,4.20
2019-01-13T12:03:50.791Z,4.20
2019-01-13T12:04:55.656Z,4.30
2019-01-13T12:06:00.544Z,4.30
2019-01-13T12:07:05.375Z,4.20
2019-01-13T12:08:10.424Z,4.20
2019-01-13T12:09:15.257Z,4.30
2019-01-13T12:10:20.665Z,4.30
2019-01-13T12:11:25.549Z,4.30
2019-01-13T12:12:30.528Z,4.20
2019-01-13T12:13:35.507Z,4.20
2019-01-13T12:14:40.415Z,4.20
2019-01-13T12:15:45.185Z,4.20
2019-01-13T12:16:50.155Z,4.30
2019-01-13T12:17:54.975Z,4.30
2019-01-13T12:19:00.784Z,4.30
2019-01-13T12:22:48.799Z,4.20
2019-01-13T12:23:53.697Z,4.20
2019-01-13T12:24:58.655Z,4.20
2019-01-13T12:26:03.508Z,4.20
2019-01-13T12:27:08.457Z,4.20
2019-01-13T12:28:13.455Z,4.20
2019-01-13T12:29:18.512Z,4.20
2019-01-13T12:30:25.820Z,4.20
2019-01-13T12:31:32.285Z,4.20
2019-01-13T12:32:37.391Z,4.20
2019-01-13T12:33:42.311Z,4.20
2019-01-13T12:34:47.176Z,4.20
2019-01-13T12:35:52.292Z,4.20
2019-01-13T12:36:57.393Z,4.10
2019-01-13T12:38:02.467Z,4.10
2019-01-13T12:39:11.326Z,4.00
2019-01-13T12:40:17.940Z,4.00
2019-01-13T12:41:22.757Z,4.00
2019-01-13T12:42:27.745Z,4.00
2019-01-13T12:43:32.816Z,4.10
2019-01-13T12:44:37.710Z,4.10
2019-01-13T12:45:42.625Z,4.10
2019-01-13T12:46:47.474Z,4.10
2019-01-13T12:47:52.946Z,4.10
2019-01-13T12:48:57.787Z,4.10
2019-01-13T12:50:02.704Z,4.10
2019-01-13T12:51:08.108Z,4.00
2019-01-13T12:52:13.024Z,4.10
2019-01-13T12:53:17.897Z,4.10
2019-01-13T12:54:22.736Z,4.10
2019-01-13T12:55:27.818Z,4.10
2019-01-13T12:56:32.746Z,4.10
2019-01-13T12:57:37.676Z,4.10
2019-01-13T12:58:42.698Z,4.10
2019-01-13T12:59:47.861Z,4.10
2019-01-13T13:00:52.706Z,4.10
2019-01-13T13:01:57.528Z,4.10
2019-01-13T13:03:02.271Z,4.10
2019-01-13T13:04:07.475Z,4.10
2019-01-13T13:05:12.697Z,4.10
2019-01-13T13:06:17.631Z,4.10
2019-01-13T13:07:22.695Z,4.10
2019-01-13T13:08:27.541Z,4.10
2019-01-13T13:09:32.471Z,4.10
2019-01-13T13:10:42.387Z,4.10
2019-01-13T13:11:47.234Z,4.10
2019-01-13T13:12:52.181Z,4.10
2019-01-13T13:13:56.972Z,4.00
2019-01-13T13:15:01.868Z,4.10
2019-01-13T13:16:06.871Z,4.10
2019-01-13T13:17:11.705Z,4.00
2019-01-13T13:18:16.780Z,4.00
2019-01-13T13:19:21.624Z,4.10
2019-01-13T13:20:26.504Z,4.10
2019-01-13T13:21:31.391Z,4.00
2019-01-13T13:22:36.338Z,4.00
2019-01-13T13:23:41.257Z,4.10
2019-01-13T13:24:46.075Z,4.10
2019-01-13T13:25:50.900Z,4.10
2019-01-13T13:26:55.828Z,4.20
2019-01-13T13:28:00.868Z,4.10
2019-01-13T13:29:06.101Z,4.20
2019-01-13T13:30:14.656Z,4.20
2019-01-13T13:31:19.554Z,4.10
2019-01-13T13:32:24.390Z,4.10
2019-01-13T13:33:29.217Z,4.10
2019-01-13T13:34:34.152Z,4.10
2019-01-13T13:35:40.065Z,4.20
2019-01-13T13:36:45.232Z,4.20
2019-01-13T13:37:50.341Z,4.20
2019-01-13T13:38:55.267Z,4.20
2019-01-13T13:40:00.249Z,4.20
2019-01-13T13:41:05.205Z,4.20
2019-01-13T13:42:10.388Z,4.20
2019-01-13T13:43:15.350Z,4.20
2019-01-13T13:44:20.228Z,4.20
2019-01-13T13:45:25.139Z,4.10
2019-01-13T13:46:30.295Z,4.20
2019-01-13T13:47:35.264Z,4.20
2019-01-13T13:48:40.267Z,4.20
2019-01-13T13:49:44.991Z,4.20
2019-01-13T13:50:50.138Z,4.10
2019-01-13T13:51:55.177Z,4.10
2019-01-13T13:53:00.145Z,4.20
2019-01-13T13:54:05.537Z,4.10
2019-01-13T13:55:11.093Z,4.10
2019-01-13T13:56:15.934Z,4.10
2019-01-13T13:57:20.835Z,4.20
2019-01-13T13:58:25.835Z,4.20
2019-01-13T13:59:30.713Z,4.20
2019-01-13T14:00:37.695Z,4.10
2019-01-13T14:01:42.611Z,4.10
2019-01-13T14:02:47.448Z,4.10
2019-01-13T14:03:52.447Z,4.10
2019-01-13T14:04:57.237Z,4.20
2019-01-13T14:06:02.121Z,4.10
2019-01-13T14:07:07.080Z,4.10
2019-01-13T14:08:12.056Z,4.10
2019-01-13T14:09:16.920Z,4.20
2019-01-13T14:10:24.676Z,4.10
2019-01-13T14:11:29.620Z,4.10
2019-01-13T14:12:34.474Z,4.10
2019-01-13T14:13:39.344Z,4.10
2019-01-13T14:14:44.341Z,4.10
2019-01-13T14:15:49.300Z,4.10
2019-01-13T14:16:54.197Z,4.10
2019-01-13T14:17:58.981Z,4.10
2019-01-13T14:19:03.967Z,4.10
2019-01-13T14:20:12.068Z,4.10
2019-01-13T14:21:16.978Z,4.00
2019-01-13T14:22:22.201Z,4.10
2019-01-13T14:23:27.220Z,4.10
2019-01-13T14:24:32.090Z,4.10
2019-01-13T14:25:36.997Z,4.10
2019-01-13T14:26:41.932Z,4.10
2019-01-13T14:27:46.958Z,4.10
2019-01-13T14:28:51.750Z,4.10
2019-01-13T14:29:56.579Z,4.10